createdAt,value
2018-12-30T00:00:28.348Z,0.00
2018-12-30T00:01:28.326Z,0.00
2018-12-30T00:02:28.558Z,0.00
2018-12-30T00:03:28.410Z,0.00
2018-12-30T00:04:28.323Z,0.00
2018-12-30T00:05:28.435Z,0.00
2018-12-30T00:06:28.315Z,0.00
2018-12-30T00:07:28.416Z,0.00
2018-12-30T00:08:28.262Z,0.00
2018-12-30T00:09:28.260Z,0.00
2018-12-30T00:10:28.339Z,0.00
2018-12-30T00:11:28.300Z,0.00
2018-12-30T00:12:28.287Z,0.00
2018-12-30T00:13:28.209Z,0.00
2018-12-30T00:14:28.192Z,0.00
2018-12-30T00:15:28.187Z,0.00
2018-12-30T00:16:28.214Z,0.00
2018-12-30T00:17:28.330Z,0.00
2018-12-30T00:18:28.164Z,0.00
2018-12-30T00:19:28.139Z,0.00
2018-12-30T00:20:28.139Z,0.00
2018-12-30T00:21:28.147Z,0.00
2018-12-30T00:22:28.151Z,0.00
2018-12-30T00:23:28.109Z,0.00
2018-12-30T00:24:28.160Z,0.00
2018-12-30T00:25:28.132Z,0.00
2018-12-30T00:26:28.066Z,0.00
2018-12-30T00:27:28.080Z,0.00
2018-12-30T00:28:28.090Z,0.00
2018-12-30T00:29:28.040Z,0.00
2018-12-30T00:30:28.318Z,0.00
2018-12-30T00:31:28.009Z,0.00
2018-12-30T00:32:28.014Z,0.00
2018-12-30T00:33:27.993Z,0.00
2018-12-30T00:34:28.022Z,0.00
2018-12-30T00:35:27.976Z,0.00
2018-12-30T00:36:28.019Z,0.00
2018-12-30T00:37:28.012Z,0.00
2018-12-30T00:38:27.973Z,0.00
2018-12-30T00:39:27.991Z,0.00
2018-12-30T00:40:27.963Z,0.00
2018-12-30T00:41:27.967Z,0.00
2018-12-30T00:42:27.965Z,0.00
2018-12-30T00:43:27.894Z,0.00
2018-12-30T00:44:27.915Z,0.00
2018-12-30T00:45:27.881Z,0.00
2018-12-30T00:46:27.932Z,0.00
2018-12-30T00:47:27.894Z,0.00
2018-12-30T00:48:27.840Z,0.00
2018-12-30T00:49:27.858Z,0.00
2018-12-30T00:50:27.818Z,0.00
2018-12-30T00:51:27.804Z,0.00
2018-12-30T00:52:27.870Z,0.00
2018-12-30T00:53:27.782Z,0.00
2018-12-30T00:54:27.831Z,0.00
2018-12-30T00:55:27.761Z,0.00
2018-12-30T00:56:27.770Z,0.00
2018-12-30T00:57:27.740Z,0.00
2018-12-30T00:58:27.771Z,0.00
2018-12-30T00:59:27.805Z,0.00
2018-12-30T01:00:27.797Z,0.00
2018-12-30T01:01:27.746Z,0.00
2018-12-30T01:02:27.739Z,0.00
2018-12-30T01:03:27.715Z,0.00
2018-12-30T01:04:27.698Z,0.00
2018-12-30T01:05:27.661Z,0.00
2018-12-30T01:06:27.653Z,0.00
2018-12-30T01:07:27.638Z,0.00
2018-12-30T01:08:27.639Z,0.00
2018-12-30T01:09:27.725Z,0.00
2018-12-30T01:10:27.675Z,0.00
2018-12-30T01:11:27.598Z,0.00
2018-12-30T01:12:27.599Z,0.00
2018-12-30T01:13:27.572Z,0.00
2018-12-30T01:14:27.570Z,0.00
2018-12-30T01:15:28.284Z,0.00
2018-12-30T01:16:27.706Z,0.00
2018-12-30T01:17:27.534Z,0.00
2018-12-30T01:18:27.526Z,0.00
2018-12-30T01:19:27.520Z,0.00
2018-12-30T01:20:27.499Z,0.00
2018-12-30T01:21:27.511Z,0.00
2018-12-30T01:22:27.510Z,0.00
2018-12-30T01:23:27.472Z,0.00
2018-12-30T01:24:27.545Z,0.00
2018-12-30T01:25:27.457Z,0.00
2018-12-30T01:26:27.439Z,0.00
2018-12-30T01:27:27.452Z,0.00
2018-12-30T01:28:27.452Z,0.00
2018-12-30T01:29:27.456Z,0.00
2018-12-30T01:30:27.410Z,0.00
2018-12-30T01:31:27.393Z,0.00
2018-12-30T01:32:27.389Z,0.00
2018-12-30T01:33:27.369Z,0.00
2018-12-30T01:34:27.354Z,0.00
2018-12-30T01:35:27.374Z,0.00
2018-12-30T01:36:27.331Z,0.00
2018-12-30T01:37:28.764Z,0.00
2018-12-30T01:38:27.325Z,0.00
2018-12-30T01:39:27.304Z,0.00
2018-12-30T01:40:27.301Z,0.00
2018-12-30T01:41:27.325Z,0.00
2018-12-30T01:42:27.271Z,0.00
2018-12-30T01:43:27.268Z,0.00
2018-12-30T01:44:27.253Z,0.00
2018-12-30T01:45:27.236Z,0.00
2018-12-30T01:46:27.253Z,0.00
2018-12-30T01:47:27.215Z,0.00
2018-12-30T01:48:27.209Z,0.00
2018-12-30T01:49:27.205Z,0.00
2018-12-30T01:50:27.193Z,0.00
2018-12-30T01:51:32.954Z,0.00
2018-12-30T01:52:28.191Z,0.00
2018-12-30T01:53:27.151Z,0.00
2018-12-30T01:54:27.139Z,0.00
2018-12-30T01:55:27.131Z,0.00
2018-12-30T01:56:27.128Z,0.00
2018-12-30T01:57:27.128Z,0.00
2018-12-30T01:58:27.117Z,0.00
2018-12-30T01:59:27.089Z,0.00
2018-12-30T02:00:27.081Z,0.00
2018-12-30T02:01:27.073Z,0.00
2018-12-30T02:02:27.070Z,0.00
2018-12-30T02:03:27.075Z,0.00
2018-12-30T02:04:27.045Z,0.00
2018-12-30T02:05:27.027Z,0.00
2018-12-30T02:06:27.019Z,0.00
2018-12-30T02:07:27.039Z,0.00
2018-12-30T02:08:27.065Z,0.00
2018-12-30T02:09:27.319Z,0.00
2018-12-30T02:10:26.976Z,0.00
2018-12-30T02:11:26.968Z,0.00
2018-12-30T02:12:26.960Z,0.00
2018-12-30T02:13:26.936Z,0.00
2018-12-30T02:14:26.935Z,0.00
2018-12-30T02:15:26.955Z,0.00
2018-12-30T02:16:26.911Z,0.00
2018-12-30T02:17:26.902Z,0.00
2018-12-30T02:18:26.903Z,0.00
2018-12-30T02:19:26.884Z,0.00
2018-12-30T02:20:26.872Z,0.00
2018-12-30T02:21:26.878Z,0.00
2018-12-30T02:22:26.844Z,0.00
2018-12-30T02:23:26.843Z,0.00
2018-12-30T02:24:26.830Z,0.00
2018-12-30T02:25:26.808Z,0.00
2018-12-30T02:26:26.829Z,0.00
2018-12-30T02:27:26.794Z,0.00
2018-12-30T02:28:26.781Z,0.00
2018-12-30T02:29:26.766Z,0.00
2018-12-30T02:30:26.785Z,0.00
2018-12-30T02:31:26.746Z,0.00
2018-12-30T02:32:26.772Z,0.00
2018-12-30T02:33:26.729Z,0.00
2018-12-30T02:34:26.719Z,0.00
2018-12-30T02:35:26.711Z,0.00
2018-12-30T02:36:26.707Z,0.00
2018-12-30T02:37:26.682Z,0.00
2018-12-30T02:38:26.696Z,0.00
2018-12-30T02:39:26.682Z,0.00
2018-12-30T02:40:26.653Z,0.00
2018-12-30T02:41:26.655Z,0.00
2018-12-30T02:42:26.641Z,0.00
2018-12-30T02:43:26.659Z,0.00
2018-12-30T02:44:26.618Z,0.00
2018-12-30T02:45:26.603Z,0.00
2018-12-30T02:46:26.589Z,0.00
2018-12-30T02:47:26.592Z,0.00
2018-12-30T02:48:26.578Z,0.00
2018-12-30T02:49:26.595Z,0.00
2018-12-30T02:50:26.552Z,0.00
2018-12-30T02:51:26.538Z,0.00
2018-12-30T02:52:26.524Z,0.00
2018-12-30T02:53:26.514Z,0.00
2018-12-30T02:54:26.502Z,0.00
2018-12-30T02:55:26.511Z,0.00
2018-12-30T02:56:26.486Z,0.00
2018-12-30T02:57:26.493Z,0.00
2018-12-30T02:58:26.470Z,0.00
2018-12-30T02:59:26.470Z,0.00
2018-12-30T03:00:26.469Z,0.00
2018-12-30T03:01:26.446Z,0.00
2018-12-30T03:02:26.425Z,0.00
2018-12-30T03:03:26.411Z,0.00
2018-12-30T03:04:26.402Z,0.00
2018-12-30T03:05:26.385Z,0.00
2018-12-30T03:06:26.404Z,0.00
2018-12-30T03:07:26.374Z,0.00
2018-12-30T03:08:26.361Z,0.00
2018-12-30T03:09:26.351Z,0.00
2018-12-30T03:10:26.341Z,0.00
2018-12-30T03:11:26.335Z,0.00
2018-12-30T03:12:26.343Z,0.00
2018-12-30T03:13:26.313Z,0.00
2018-12-30T03:14:26.303Z,0.00
2018-12-30T03:15:26.289Z,0.00
2018-12-30T03:16:26.275Z,0.00
2018-12-30T03:17:26.277Z,0.00
2018-12-30T03:18:26.258Z,0.00
2018-12-30T03:19:26.253Z,0.00
2018-12-30T03:20:26.240Z,0.00
2018-12-30T03:21:26.231Z,0.00
2018-12-30T03:22:26.239Z,0.00
2018-12-30T03:23:26.195Z,0.00
2018-12-30T03:24:26.192Z,0.00
2018-12-30T03:25:26.181Z,0.00
2018-12-30T03:26:26.171Z,0.00
2018-12-30T03:27:26.165Z,0.00
2018-12-30T03:28:26.177Z,0.00
2018-12-30T03:29:26.139Z,0.00
2018-12-30T03:30:26.125Z,0.00
2018-12-30T03:31:26.120Z,0.00
2018-12-30T03:32:26.110Z,0.00
2018-12-30T03:33:26.099Z,0.00
2018-12-30T03:34:26.110Z,0.00
2018-12-30T03:35:26.077Z,0.00
2018-12-30T03:36:26.092Z,0.00
2018-12-30T03:37:26.051Z,0.00
2018-12-30T03:38:26.048Z,0.00
2018-12-30T03:39:26.038Z,0.00
2018-12-30T03:40:26.046Z,0.00
2018-12-30T03:41:26.012Z,0.00
2018-12-30T03:42:26.003Z,0.00
2018-12-30T03:43:25.985Z,0.00
2018-12-30T03:44:25.976Z,0.00
2018-12-30T03:45:26.034Z,0.00
2018-12-30T03:46:25.967Z,0.00
2018-12-30T03:47:25.949Z,0.00
2018-12-30T03:48:25.942Z,0.00
2018-12-30T03:49:25.943Z,0.00
2018-12-30T03:50:25.917Z,0.00
2018-12-30T03:51:25.932Z,0.00
2018-12-30T03:52:25.912Z,0.00
2018-12-30T03:53:25.888Z,0.00
2018-12-30T03:54:25.877Z,0.00
2018-12-30T03:55:25.858Z,0.00
2018-12-30T03:56:25.848Z,0.00
2018-12-30T03:57:25.858Z,0.00
2018-12-30T03:58:25.854Z,0.00
2018-12-30T03:59:25.830Z,0.00
2018-12-30T04:00:25.818Z,0.00
2018-12-30T04:01:25.797Z,0.00
2018-12-30T04:02:25.814Z,0.00
2018-12-30T04:03:25.780Z,0.00
2018-12-30T04:04:25.775Z,0.00
2018-12-30T04:05:25.761Z,0.00
2018-12-30T04:06:25.755Z,0.00
2018-12-30T04:07:25.746Z,0.00
2018-12-30T04:08:25.841Z,0.00
2018-12-30T04:09:25.727Z,0.00
2018-12-30T04:10:25.701Z,0.00
2018-12-30T04:11:25.700Z,0.00
2018-12-30T04:12:25.684Z,0.00
2018-12-30T04:13:25.680Z,0.00
2018-12-30T04:14:25.681Z,0.00
2018-12-30T04:15:25.657Z,0.00
2018-12-30T04:16:25.662Z,0.00
2018-12-30T04:17:25.640Z,0.00
2018-12-30T04:18:25.621Z,0.00
2018-12-30T04:19:25.650Z,0.00
2018-12-30T04:20:25.601Z,0.00
2018-12-30T04:21:25.588Z,0.00
2018-12-30T04:22:25.579Z,0.00
2018-12-30T04:23:25.570Z,0.00
2018-12-30T04:24:25.560Z,0.00
2018-12-30T04:25:25.575Z,0.00
2018-12-30T04:26:25.545Z,0.00
2018-12-30T04:27:25.527Z,0.00
2018-12-30T04:28:25.529Z,0.00
2018-12-30T04:29:25.509Z,0.00
2018-12-30T04:30:25.491Z,0.00
2018-12-30T04:31:25.504Z,0.00
2018-12-30T04:32:25.477Z,0.00
2018-12-30T04:33:25.463Z,0.00
2018-12-30T04:34:25.467Z,0.00
2018-12-30T04:35:25.435Z,0.00
2018-12-30T04:36:25.427Z,0.00
2018-12-30T04:37:25.441Z,0.00
2018-12-30T04:38:25.418Z,0.00
2018-12-30T04:39:25.398Z,0.00
2018-12-30T04:40:25.411Z,0.00
2018-12-30T04:41:25.378Z,0.00
2018-12-30T04:42:25.399Z,0.00
2018-12-30T04:43:25.353Z,0.00
2018-12-30T04:44:25.351Z,0.00
2018-12-30T04:45:25.348Z,0.00
2018-12-30T04:46:25.329Z,0.00
2018-12-30T04:47:25.316Z,0.00
2018-12-30T04:48:25.346Z,0.00
2018-12-30T04:49:25.311Z,0.00
2018-12-30T04:50:25.284Z,0.00
2018-12-30T04:51:25.281Z,0.00
2018-12-30T04:52:26.158Z,0.00
2018-12-30T04:53:25.248Z,0.00
2018-12-30T04:54:25.256Z,0.00
2018-12-30T04:55:25.237Z,0.00
2018-12-30T04:56:25.225Z,0.00
2018-12-30T04:57:25.219Z,0.00
2018-12-30T04:58:25.239Z,0.00
2018-12-30T04:59:25.220Z,0.00
2018-12-30T05:00:25.181Z,0.00
2018-12-30T05:01:25.169Z,0.00
2018-12-30T05:02:25.169Z,0.00
2018-12-30T05:03:25.147Z,0.00
2018-12-30T05:04:25.142Z,0.00
2018-12-30T05:05:25.140Z,0.00
2018-12-30T05:06:25.116Z,0.00
2018-12-30T05:07:25.100Z,0.00
2018-12-30T05:08:25.098Z,0.00
2018-12-30T05:09:25.081Z,0.00
2018-12-30T05:10:25.102Z,0.00
2018-12-30T05:11:25.123Z,0.00
2018-12-30T05:12:25.054Z,0.00
2018-12-30T05:13:25.041Z,0.00
2018-12-30T05:14:25.034Z,0.00
2018-12-30T05:15:25.035Z,0.00
2018-12-30T05:16:25.023Z,0.00
2018-12-30T05:17:24.995Z,0.00
2018-12-30T05:18:25.005Z,0.00
2018-12-30T05:19:24.987Z,0.00
2018-12-30T05:20:25.024Z,0.00
2018-12-30T05:21:24.993Z,0.00
2018-12-30T05:22:24.949Z,0.00
2018-12-30T05:23:24.938Z,0.00
2018-12-30T05:24:24.934Z,0.00
2018-12-30T05:25:24.918Z,0.00
2018-12-30T05:26:24.929Z,0.00
2018-12-30T05:27:24.899Z,0.00
2018-12-30T05:28:24.888Z,0.00
2018-12-30T05:29:24.890Z,0.00
2018-12-30T05:30:24.858Z,0.00
2018-12-30T05:31:24.859Z,0.00
2018-12-30T05:32:24.867Z,0.00
2018-12-30T05:33:24.839Z,0.00
2018-12-30T05:34:24.826Z,0.00
2018-12-30T05:35:24.809Z,0.00
2018-12-30T05:36:24.804Z,0.00
2018-12-30T05:37:24.824Z,0.00
2018-12-30T05:38:24.791Z,0.00
2018-12-30T05:39:24.777Z,0.00
2018-12-30T05:40:24.758Z,0.00
2018-12-30T05:41:24.749Z,0.00
2018-12-30T05:42:24.747Z,0.00
2018-12-30T05:43:24.759Z,0.00
2018-12-30T05:44:24.717Z,0.00
2018-12-30T05:45:24.706Z,0.00
2018-12-30T05:46:24.696Z,0.00
2018-12-30T05:47:24.691Z,0.00
2018-12-30T05:48:24.713Z,0.00
2018-12-30T05:49:24.668Z,0.00
2018-12-30T05:50:24.666Z,0.00
2018-12-30T05:51:24.655Z,0.00
2018-12-30T05:52:24.641Z,0.00
2018-12-30T05:53:24.622Z,0.00
2018-12-30T05:54:24.644Z,0.00
2018-12-30T05:55:24.607Z,0.00
2018-12-30T05:56:24.596Z,0.00
2018-12-30T05:57:24.583Z,0.00
2018-12-30T05:58:24.566Z,0.00
2018-12-30T05:59:24.580Z,0.00
2018-12-30T06:00:24.584Z,0.00
2018-12-30T06:01:24.539Z,0.00
2018-12-30T06:02:24.536Z,0.00
2018-12-30T06:03:24.535Z,0.00
2018-12-30T06:04:24.522Z,0.00
2018-12-30T06:05:24.498Z,0.00
2018-12-30T06:06:24.506Z,0.00
2018-12-30T06:07:24.476Z,0.00
2018-12-30T06:08:24.463Z,0.00
2018-12-30T06:09:24.461Z,0.00
2018-12-30T06:10:24.445Z,0.00
2018-12-30T06:11:24.470Z,0.00
2018-12-30T06:12:24.437Z,0.00
2018-12-30T06:13:24.407Z,0.00
2018-12-30T06:14:24.406Z,0.00
2018-12-30T06:15:24.399Z,0.00
2018-12-30T06:16:24.380Z,0.00
2018-12-30T06:17:24.399Z,0.00
2018-12-30T06:18:24.381Z,0.00
2018-12-30T06:19:24.350Z,0.00
2018-12-30T06:20:24.340Z,0.00
2018-12-30T06:21:24.349Z,0.00
2018-12-30T06:22:24.343Z,0.00
2018-12-30T06:23:24.314Z,0.00
2018-12-30T06:24:24.298Z,0.00
2018-12-30T06:25:24.293Z,0.00
2018-12-30T06:26:24.284Z,0.00
2018-12-30T06:27:24.264Z,0.00
2018-12-30T06:28:24.275Z,0.00
2018-12-30T06:29:24.262Z,0.00
2018-12-30T06:30:24.238Z,0.00
2018-12-30T06:31:24.223Z,0.00
2018-12-30T06:32:24.214Z,0.00
2018-12-30T06:33:24.276Z,0.00
2018-12-30T06:34:24.198Z,0.00
2018-12-30T06:35:24.191Z,0.00
2018-12-30T06:36:24.173Z,0.00
2018-12-30T06:37:24.162Z,0.00
2018-12-30T06:38:24.155Z,0.00
2018-12-30T06:39:24.170Z,0.00
2018-12-30T06:40:24.178Z,0.00
2018-12-30T06:41:24.125Z,0.00
2018-12-30T06:42:24.120Z,0.00
2018-12-30T06:43:24.099Z,0.00
2018-12-30T06:44:24.106Z,0.00
2018-12-30T06:45:24.093Z,0.00
2018-12-30T06:46:24.064Z,0.00
2018-12-30T06:47:24.068Z,0.00
2018-12-30T06:48:24.045Z,0.00
2018-12-30T06:49:24.063Z,0.00
2018-12-30T06:50:24.094Z,0.00
2018-12-30T06:51:24.018Z,0.00
2018-12-30T06:52:24.005Z,0.00
2018-12-30T06:53:24.001Z,0.00
2018-12-30T06:54:24.013Z,0.00
2018-12-30T06:55:23.973Z,0.00
2018-12-30T06:56:23.968Z,0.00
2018-12-30T06:57:23.962Z,0.00
2018-12-30T06:58:23.940Z,0.00
2018-12-30T06:59:23.935Z,0.00
2018-12-30T07:00:23.991Z,0.00
2018-12-30T07:01:23.914Z,0.00
2018-12-30T07:02:23.903Z,0.00
2018-12-30T07:03:23.905Z,0.00
2018-12-30T07:04:23.875Z,4.00
2018-12-30T07:05:23.898Z,4.00
2018-12-30T07:06:23.862Z,0.00
2018-12-30T07:07:23.876Z,4.00
2018-12-30T07:08:23.842Z,4.00
2018-12-30T07:09:23.839Z,4.00
2018-12-30T07:10:23.819Z,4.00
2018-12-30T07:11:23.821Z,8.00
2018-12-30T07:12:23.805Z,8.00
2018-12-30T07:13:23.791Z,8.00
2018-12-30T07:14:23.775Z,8.00
2018-12-30T07:15:23.771Z,12.00
2018-12-30T07:16:23.782Z,12.00
2018-12-30T07:17:23.749Z,12.00
2018-12-30T07:18:23.734Z,16.00
2018-12-30T07:19:23.728Z,16.00
2018-12-30T07:20:23.721Z,16.00
2018-12-30T07:21:23.711Z,24.00
2018-12-30T07:22:23.718Z,28.00
2018-12-30T07:23:23.692Z,32.00
2018-12-30T07:24:23.675Z,28.00
2018-12-30T07:25:23.665Z,32.00
2018-12-30T07:26:23.657Z,36.00
2018-12-30T07:27:23.675Z,40.00
2018-12-30T07:28:23.628Z,44.00
2018-12-30T07:29:23.627Z,52.00
2018-12-30T07:30:23.616Z,52.00
2018-12-30T07:31:23.640Z,56.00
2018-12-30T07:32:23.628Z,64.00
2018-12-30T07:33:23.579Z,64.00
2018-12-30T07:34:23.570Z,68.00
2018-12-30T07:35:23.565Z,76.00
2018-12-30T07:36:23.546Z,76.00
2018-12-30T07:37:23.549Z,80.00
2018-12-30T07:38:23.556Z,84.00
2018-12-30T07:39:23.520Z,88.00
2018-12-30T07:40:23.506Z,88.00
2018-12-30T07:41:23.495Z,104.00
2018-12-30T07:42:23.486Z,104.00
2018-12-30T07:43:23.515Z,112.00
2018-12-30T07:44:23.474Z,112.00
2018-12-30T07:45:23.500Z,128.00
2018-12-30T07:46:23.447Z,136.00
2018-12-30T07:47:23.471Z,152.00
2018-12-30T07:48:23.485Z,148.00
2018-12-30T07:49:23.472Z,144.00
2018-12-30T07:50:23.409Z,164.00
2018-12-30T07:51:23.392Z,184.00
2018-12-30T07:52:23.384Z,176.00
2018-12-30T07:53:23.369Z,172.00
2018-12-30T07:54:23.525Z,168.00
2018-12-30T07:55:23.561Z,220.00
2018-12-30T07:56:23.346Z,244.00
2018-12-30T07:57:23.334Z,280.00
2018-12-30T07:58:23.412Z,300.00
2018-12-30T07:59:23.398Z,316.00
2018-12-30T08:00:23.305Z,316.00
2018-12-30T08:01:23.285Z,360.00
2018-12-30T08:02:23.319Z,360.00
2018-12-30T08:03:23.315Z,336.00
2018-12-30T08:04:23.259Z,348.00
2018-12-30T08:05:23.265Z,376.00
2018-12-30T08:06:23.237Z,416.00
2018-12-30T08:07:23.244Z,408.00
2018-12-30T08:08:23.262Z,424.00
2018-12-30T08:09:23.204Z,448.00
2018-12-30T08:10:23.305Z,472.00
2018-12-30T08:11:23.183Z,396.00
2018-12-30T08:12:23.228Z,420.00
2018-12-30T08:13:23.169Z,408.00
2018-12-30T08:14:23.153Z,432.00
2018-12-30T08:15:23.137Z,432.00
2018-12-30T08:16:23.145Z,420.00
2018-12-30T08:17:23.136Z,468.00
2018-12-30T08:18:23.125Z,384.00
2018-12-30T08:19:23.115Z,408.00
2018-12-30T08:20:23.263Z,396.00
2018-12-30T08:21:23.310Z,364.00
2018-12-30T08:22:23.063Z,384.00
2018-12-30T08:23:23.737Z,408.00
2018-12-30T08:24:23.045Z,392.00
2018-12-30T08:25:23.037Z,364.00
2018-12-30T08:26:23.024Z,360.00
2018-12-30T08:27:23.037Z,364.00
2018-12-30T08:28:25.141Z,356.00
2018-12-30T08:29:23.032Z,368.00
2018-12-30T08:30:23.029Z,432.00
2018-12-30T08:31:22.974Z,372.00
2018-12-30T08:32:22.995Z,408.00
2018-12-30T08:33:22.953Z,436.00
2018-12-30T08:34:22.992Z,424.00
2018-12-30T08:35:22.927Z,448.00
2018-12-30T08:36:22.919Z,480.00
2018-12-30T08:37:22.982Z,472.00
2018-12-30T08:38:22.912Z,468.00
2018-12-30T08:39:22.885Z,484.00
2018-12-30T08:40:23.007Z,500.00
2018-12-30T08:41:22.865Z,500.00
2018-12-30T08:42:22.872Z,528.00
2018-12-30T08:43:22.876Z,548.00
2018-12-30T08:44:22.869Z,564.00
2018-12-30T08:45:22.830Z,612.00
2018-12-30T08:46:23.790Z,708.00
2018-12-30T08:47:22.858Z,684.00
2018-12-30T08:48:22.823Z,764.00
2018-12-30T08:49:22.780Z,720.00
2018-12-30T08:50:22.779Z,704.00
2018-12-30T08:51:22.760Z,628.00
2018-12-30T08:52:22.760Z,512.00
2018-12-30T08:53:29.321Z,604.00
2018-12-30T08:54:23.746Z,848.00
2018-12-30T08:55:22.726Z,920.00
2018-12-30T08:56:22.712Z,792.00
2018-12-30T08:57:22.705Z,1024.00
2018-12-30T08:58:22.696Z,756.00
2018-12-30T08:59:22.995Z,1468.00
2018-12-30T09:00:22.927Z,1012.00
2018-12-30T09:01:28.477Z,972.00
2018-12-30T09:02:23.780Z,1248.00
2018-12-30T09:03:22.738Z,884.00
2018-12-30T09:04:22.699Z,916.00
2018-12-30T09:05:22.903Z,1584.00
2018-12-30T09:06:22.613Z,1060.00
2018-12-30T09:07:22.591Z,1104.00
2018-12-30T09:08:22.590Z,1004.00
2018-12-30T09:09:22.575Z,1076.00
2018-12-30T09:10:22.575Z,1460.00
2018-12-30T09:11:22.613Z,1016.00
2018-12-30T09:12:22.541Z,1480.00
2018-12-30T09:13:23.471Z,1172.00
2018-12-30T09:14:22.592Z,1084.00
2018-12-30T09:15:22.534Z,1040.00
2018-12-30T09:16:22.550Z,1176.00
2018-12-30T09:17:22.494Z,960.00
2018-12-30T09:18:22.643Z,828.00
2018-12-30T09:19:22.500Z,840.00
2018-12-30T09:20:22.517Z,880.00
2018-12-30T09:21:22.475Z,908.00
2018-12-30T09:22:22.462Z,900.00
2018-12-30T09:23:22.544Z,904.00
2018-12-30T09:24:22.413Z,916.00
2018-12-30T09:25:22.427Z,952.00
2018-12-30T09:26:22.418Z,1320.00
2018-12-30T09:27:22.438Z,1004.00
2018-12-30T09:28:22.426Z,1136.00
2018-12-30T09:29:22.381Z,1020.00
2018-12-30T09:30:22.431Z,1064.00
2018-12-30T09:31:22.352Z,992.00
2018-12-30T09:32:22.489Z,992.00
2018-12-30T09:33:22.323Z,1216.00
2018-12-30T09:34:22.312Z,1060.00
2018-12-30T09:35:22.305Z,1048.00
2018-12-30T09:36:22.292Z,1156.00
2018-12-30T09:37:22.409Z,1052.00
2018-12-30T09:38:22.346Z,1280.00
2018-12-30T09:39:22.259Z,1160.00
2018-12-30T09:40:22.261Z,1028.00
2018-12-30T09:41:22.237Z,1068.00
2018-12-30T09:42:22.238Z,1124.00
2018-12-30T09:43:22.242Z,984.00
2018-12-30T09:44:22.253Z,1040.00
2018-12-30T09:45:22.202Z,1040.00
2018-12-30T09:46:22.202Z,1112.00
2018-12-30T09:47:22.174Z,1140.00
2018-12-30T09:48:22.207Z,1144.00
2018-12-30T09:49:22.162Z,1208.00
2018-12-30T09:50:22.147Z,1468.00
2018-12-30T09:51:22.156Z,1680.00
2018-12-30T09:52:22.128Z,1608.00
2018-12-30T09:53:22.120Z,1624.00
2018-12-30T09:54:22.150Z,1700.00
2018-12-30T09:55:22.131Z,1280.00
2018-12-30T09:56:22.087Z,1560.00
2018-12-30T09:57:22.083Z,2640.00
2018-12-30T09:58:22.070Z,1984.00
2018-12-30T09:59:22.050Z,2320.00
2018-12-30T10:00:22.064Z,2052.00
2018-12-30T10:01:22.141Z,2364.00
2018-12-30T10:02:22.014Z,2088.00
2018-12-30T10:03:22.069Z,1540.00
2018-12-30T10:04:22.045Z,1752.00
2018-12-30T10:05:22.368Z,2220.00
2018-12-30T10:06:21.989Z,2040.00
2018-12-30T10:07:22.724Z,2800.00
2018-12-30T10:08:22.041Z,2392.00
2018-12-30T10:09:21.942Z,2408.00
2018-12-30T10:10:21.984Z,1928.00
2018-12-30T10:11:21.953Z,1872.00
2018-12-30T10:12:21.974Z,1960.00
2018-12-30T10:13:21.968Z,1804.00
2018-12-30T10:14:21.905Z,1628.00
2018-12-30T10:15:21.882Z,2244.00
2018-12-30T10:16:21.905Z,1700.00
2018-12-30T10:17:22.718Z,1880.00
2018-12-30T10:18:21.863Z,2756.00
2018-12-30T10:19:21.889Z,1740.00
2018-12-30T10:20:21.848Z,2028.00
2018-12-30T10:21:21.826Z,1336.00
2018-12-30T10:22:21.935Z,1852.00
2018-12-30T10:23:21.801Z,1580.00
2018-12-30T10:24:21.826Z,1264.00
2018-12-30T10:25:21.825Z,1384.00
2018-12-30T10:26:21.817Z,1764.00
2018-12-30T10:27:21.811Z,1872.00
2018-12-30T10:28:21.875Z,1540.00
2018-12-30T10:29:21.740Z,1292.00
2018-12-30T10:30:21.751Z,2312.00
2018-12-30T10:31:21.717Z,2112.00
2018-12-30T10:32:21.761Z,2156.00
2018-12-30T10:33:21.741Z,1784.00
2018-12-30T10:34:21.684Z,1896.00
2018-12-30T10:35:21.699Z,2540.00
2018-12-30T10:36:21.692Z,1784.00
2018-12-30T10:37:21.713Z,1476.00
2018-12-30T10:38:21.661Z,2344.00
2018-12-30T10:39:21.641Z,1976.00
2018-12-30T10:40:21.659Z,1336.00
2018-12-30T10:41:22.247Z,1696.00
2018-12-30T10:42:21.599Z,2832.00
2018-12-30T10:43:21.702Z,2052.00
2018-12-30T10:44:21.580Z,2316.00
2018-12-30T10:45:21.569Z,2564.00
2018-12-30T10:46:21.630Z,1744.00
2018-12-30T10:47:21.548Z,1820.00
2018-12-30T10:48:21.568Z,1660.00
2018-12-30T10:49:21.544Z,1932.00
2018-12-30T10:50:21.530Z,2920.00
2018-12-30T10:51:21.564Z,3072.00
2018-12-30T10:52:21.506Z,2236.00
2018-12-30T10:53:21.482Z,2684.00
2018-12-30T10:54:21.507Z,2084.00
2018-12-30T10:55:21.471Z,2232.00
2018-12-30T10:56:21.462Z,1836.00
2018-12-30T10:57:21.447Z,1392.00
2018-12-30T10:58:21.587Z,2000.00
2018-12-30T10:59:21.452Z,1652.00
2018-12-30T11:00:21.410Z,1600.00
2018-12-30T11:01:21.403Z,2284.00
2018-12-30T11:02:21.395Z,2480.00
2018-12-30T11:03:21.382Z,2184.00
2018-12-30T11:04:21.370Z,2064.00
2018-12-30T11:05:21.378Z,2060.00
2018-12-30T11:06:21.344Z,1980.00
2018-12-30T11:07:21.337Z,2276.00
2018-12-30T11:08:21.344Z,1660.00
2018-12-30T11:09:21.370Z,2020.00
2018-12-30T11:10:21.359Z,2988.00
2018-12-30T11:11:21.314Z,2216.00
2018-12-30T11:12:21.276Z,2360.00
2018-12-30T11:13:21.273Z,3348.00
2018-12-30T11:14:21.260Z,2360.00
2018-12-30T11:15:21.246Z,2024.00
2018-12-30T11:16:21.263Z,1760.00
2018-12-30T11:17:21.228Z,2944.00
2018-12-30T11:18:21.223Z,2372.00
2018-12-30T11:19:21.209Z,1744.00
2018-12-30T11:20:21.867Z,1824.00
2018-12-30T11:21:21.213Z,2188.00
2018-12-30T11:22:21.174Z,1968.00
2018-12-30T11:23:21.173Z,1232.00
2018-12-30T11:24:21.150Z,1536.00
2018-12-30T11:25:21.178Z,1800.00
2018-12-30T11:26:21.132Z,1492.00
2018-12-30T11:27:21.149Z,1912.00
2018-12-30T11:28:21.116Z,1576.00
2018-12-30T11:29:21.100Z,1996.00
2018-12-30T11:30:21.115Z,1860.00
2018-12-30T11:31:21.077Z,1604.00
2018-12-30T11:32:21.095Z,2048.00
2018-12-30T11:33:21.133Z,1716.00
2018-12-30T11:34:21.050Z,1412.00
2018-12-30T11:35:21.042Z,1388.00
2018-12-30T11:36:21.034Z,1728.00
2018-12-30T11:37:21.044Z,1272.00
2018-12-30T11:38:21.036Z,1212.00
2018-12-30T11:39:21.006Z,1760.00
2018-12-30T11:40:20.979Z,1180.00
2018-12-30T11:41:20.992Z,1172.00
2018-12-30T11:42:20.988Z,1204.00
2018-12-30T11:43:20.985Z,1232.00
2018-12-30T11:44:20.942Z,1776.00
2018-12-30T11:45:20.953Z,2416.00
2018-12-30T11:46:21.001Z,1964.00
2018-12-30T11:47:20.911Z,1512.00
2018-12-30T11:48:20.903Z,1172.00
2018-12-30T11:49:20.902Z,1260.00
2018-12-30T11:50:20.888Z,1432.00
2018-12-30T11:51:20.875Z,1248.00
2018-12-30T11:52:20.965Z,1700.00
2018-12-30T11:53:20.935Z,1424.00
2018-12-30T11:54:20.929Z,1900.00
2018-12-30T11:55:20.868Z,2252.00
2018-12-30T11:56:20.819Z,1656.00
2018-12-30T11:57:20.804Z,1896.00
2018-12-30T11:58:20.791Z,1520.00
2018-12-30T11:59:20.809Z,2120.00
2018-12-30T12:00:20.791Z,1432.00
2018-12-30T12:01:20.762Z,1508.00
2018-12-30T12:02:24.148Z,1560.00
2018-12-30T12:03:20.742Z,1544.00
2018-12-30T12:04:20.733Z,1664.00
2018-12-30T12:05:20.774Z,2228.00
2018-12-30T12:06:20.713Z,1468.00
2018-12-30T12:07:20.794Z,1428.00
2018-12-30T12:08:20.687Z,1848.00
2018-12-30T12:09:20.706Z,1316.00
2018-12-30T12:10:21.655Z,1244.00
2018-12-30T12:11:20.703Z,1228.00
2018-12-30T12:12:20.738Z,1444.00
2018-12-30T12:13:20.637Z,1508.00
2018-12-30T12:14:20.629Z,1228.00
2018-12-30T12:15:20.615Z,1276.00
2018-12-30T12:16:20.626Z,1236.00
2018-12-30T12:17:20.614Z,1236.00
2018-12-30T12:18:20.602Z,1344.00
2018-12-30T12:19:20.571Z,1636.00
2018-12-30T12:20:20.606Z,1844.00
2018-12-30T12:21:20.548Z,1748.00
2018-12-30T12:22:20.560Z,1972.00
2018-12-30T12:23:20.554Z,2028.00
2018-12-30T12:24:24.265Z,1932.00
2018-12-30T12:25:20.507Z,1960.00
2018-12-30T12:26:20.606Z,1908.00
2018-12-30T12:27:20.613Z,1812.00
2018-12-30T12:28:20.509Z,2076.00
2018-12-30T12:29:20.551Z,2092.00
2018-12-30T12:30:20.555Z,1584.00
2018-12-30T12:31:20.487Z,2004.00
2018-12-30T12:32:20.559Z,1812.00
2018-12-30T12:33:20.670Z,2084.00
2018-12-30T12:34:21.294Z,2616.00
2018-12-30T12:35:20.458Z,2240.00
2018-12-30T12:36:20.577Z,2348.00
2018-12-30T12:37:20.468Z,2944.00
2018-12-30T12:38:20.467Z,2784.00
2018-12-30T12:39:21.314Z,2444.00
2018-12-30T12:40:20.397Z,1908.00
2018-12-30T12:41:20.349Z,2020.00
2018-12-30T12:42:20.352Z,2196.00
2018-12-30T12:43:20.338Z,1924.00
2018-12-30T12:44:20.635Z,1884.00
2018-12-30T12:45:21.063Z,1592.00
2018-12-30T12:46:20.335Z,1608.00
2018-12-30T12:47:20.630Z,1488.00
2018-12-30T12:48:20.583Z,1588.00
2018-12-30T12:49:20.339Z,1504.00